• Join FlightAware (Why Join?)
  • Login
  • US Flag 
03:10AM EDT


 

Airport Tracker/Info


-or-


 

Live Flight TrackerFlight Track Log ✈ QLK114 ✈ 28-Jun-2013 ✈ YSSY / SYD - YCFS

Flight Track Log - Related Links

Times and Time Zones

All times are in EDT time to prevent confusion due to time zone crossing. See the QLK114 flight status page for this flight to view local times or setup timezone preferences in your user account.

Time Position Orientation Groundspeed Altitude Reporting Facility
EDT Latitude Longitude Course Direction KTS MPH feet Rate Location/Type
03:55AM -33.9778 151.2023 113° Southeast 126 145 1,000  Level Aus ATC (RADAR)
03:56AM -33.9875 151.2302 113° Southeast 156 180 1,700 1,740 Climbing Aus ATC (RADAR)
03:57AM -34.0041 151.2757 114° Southeast 146 168 3,800 1,800 Climbing Aus ATC (RADAR)
03:57AM -33.9762 151.2971 32° Northeast 158 182 5,100 1,860 Climbing Aus ATC (RADAR)
03:58AM -33.9432 151.3140 23° Northeast 159 183 6,800 1,980 Climbing Aus ATC (RADAR)
03:59AM -33.9019 151.3340 22° Northeast 159 183 8,600 1,560 Climbing Aus ATC (RADAR)
04:00AM -33.8648 151.3512 21° North 175 201 9,700 1,320 Climbing Aus ATC (RADAR)
04:01AM -33.8361 151.3635 20° North 194 223 10,500 1,260 Climbing Aus ATC (RADAR)
04:02AM -33.7740 151.3913 20° North 202 232 12,000 1,200 Climbing Aus ATC (RADAR)
04:03AM -33.7310 151.4109 21° North 203 234 13,000 1,140 Climbing Aus ATC (RADAR)
04:03AM -33.6861 151.4315 21° North 204 235 13,900 1,080 Climbing Aus ATC (RADAR)
04:04AM -33.6554 151.4456 21° North 201 231 14,600 900 Climbing Aus ATC (RADAR)
04:05AM -33.6115 151.4651 20° North 208 239 15,200 960 Climbing Aus ATC (RADAR)
04:06AM -33.5619 151.4878 21° North 207 238 16,300 1,020 Climbing Aus ATC (RADAR)
04:07AM -33.5072 151.5128 21° North 213 245 17,200 840 Climbing Aus ATC (RADAR)
04:08AM -33.4560 151.5356 20° North 214 246 18,000 840 Climbing Aus ATC (RADAR)
04:08AM -33.4141 151.5545 21° North 216 249 18,600 900 Climbing Aus ATC (RADAR)
04:09AM -33.3815 151.5702 22° Northeast 217 250 19,200 480 Climbing Aus ATC (RADAR)
04:10AM -33.3363 151.6023 31° Northeast 228 262 19,300  Climbing Aus ATC (RADAR)
04:11AM -33.2765 151.6433 30° Northeast 248 285 19,300  Level Aus ATC (RADAR)
04:12AM -33.2294 151.6753 30° Northeast 258 297 19,300  Level Aus ATC (RADAR)
04:13AM -33.1708 151.7156 30° Northeast 263 303 19,300  Level Aus ATC (RADAR)
04:13AM -33.1217 151.7494 30° Northeast 266 306 19,300  Level Aus ATC (RADAR)
04:14AM -33.0857 151.7739 30° Northeast 262 302 19,300  Level Aus ATC (RADAR)
04:15AM -33.0328 151.8094 29° Northeast 260 299 19,300  Level Aus ATC (RADAR)
04:16AM -32.9697 151.8520 30° Northeast 259 298 19,300  Level Aus ATC (RADAR)
04:17AM -32.8890 151.9065 30° Northeast 263 303 19,300  Level Aus ATC (RADAR)
04:18AM -32.8266 151.9479 29° Northeast 261 300 19,300  Level Aus ATC (RADAR)
04:19AM -32.7839 151.9765 29° Northeast 262 302 19,300  Level Aus ATC (RADAR)
04:19AM -32.7357 152.0089 30° Northeast 263 303 19,300  Level Aus ATC (RADAR)
04:20AM -32.6712 152.0520 29° Northeast 263 303 19,300  Level Aus ATC (RADAR)
04:21AM -32.6170 152.0882 29° Northeast 265 305 19,300  Level Aus ATC (RADAR)
04:22AM -32.5683 152.1206 29° Northeast 266 306 19,300  Level Aus ATC (RADAR)
04:23AM -32.5140 152.1574 30° Northeast 267 307 19,300  Level Aus ATC (RADAR)
04:23AM -32.4759 152.1829 29° Northeast 267 307 19,300  Level Aus ATC (RADAR)
04:24AM -32.4200 152.2196 29° Northeast 267 307 19,300  Level Aus ATC (RADAR)
04:25AM -32.3493 152.2658 29° Northeast 270 311 19,300  Level Aus ATC (RADAR)
04:26AM -32.3019 152.2974 29° Northeast 268 308 19,300  Level Aus ATC (RADAR)
04:27AM -32.2474 152.3343 30° Northeast 270 311 19,300  Level Aus ATC (RADAR)
04:27AM -32.2089 152.3596 29° Northeast 270 311 19,300  Level Aus ATC (RADAR)
04:28AM -32.1355 152.4080 29° Northeast 274 315 19,300  Level Aus ATC (RADAR)
04:29AM -32.0929 152.4357 29° Northeast 270 311 19,300  Level Aus ATC (RADAR)
04:30AM -32.0455 152.4592 23° Northeast 264 304 19,300  Level Aus ATC (RADAR)
04:31AM -31.9782 152.4763 12° North 268 308 19,300 -60 Level Aus ATC (RADAR)
04:32AM -31.9193 152.4935 14° North 268 308 19,200 -120 Descending Aus ATC (RADAR)
04:32AM -31.8650 152.5095 14° North 267 307 19,200  Level Aus ATC (RADAR)
04:33AM -31.7853 152.5328 14° North 266 306 19,300  Climbing Aus ATC (RADAR)
04:34AM -31.7329 152.5478 14° North 265 305 19,200 -120 Descending Aus ATC (RADAR)
04:35AM -31.6917 152.5599 14° North 261 300 19,200 60 Level Aus ATC (RADAR)
04:36AM -31.6312 152.5777 14° North 261 300 19,300  Climbing Aus ATC (RADAR)
04:37AM -31.5605 152.5982 14° North 262 302 19,300  Level Aus ATC (RADAR)
04:37AM -31.5039 152.6150 14° North 258 297 19,300  Level Aus ATC (RADAR)
04:39AM -31.4162 152.6406 14° North 257 296 19,300  Level Aus ATC (RADAR)
04:39AM -31.3576 152.6575 14° North 260 299 19,300  Level Aus ATC (RADAR)
04:40AM -31.2977 152.6751 14° North 258 297 19,300  Level Aus ATC (RADAR)
04:41AM -31.2568 152.6871 14° North 258 297 19,300 -540 Level Aus ATC (RADAR)
04:42AM -31.2007 152.7037 14° North 253 291 18,600 -1,140 Descending Aus ATC (RADAR)
04:43AM -31.1380 152.7214 14° North 273 314 17,400 -1,500 Descending Aus ATC (RADAR)
04:43AM -31.0801 152.7400 15° North 255 293 16,200 -1,500 Descending Aus ATC (RADAR)
04:44AM -31.0368 152.7514 13° North 265 305 15,300 -1,500 Descending Aus ATC (RADAR)
04:45AM -30.9737 152.7689 13° North 271 312 14,100 -1,500 Descending Aus ATC (RADAR)
04:46AM -30.9001 152.7892 13° North 271 312 12,600 -1,440 Descending Aus ATC (RADAR)
04:47AM -30.8507 152.8048 15° North 255 293 11,600 -1,260 Descending Aus ATC (RADAR)
04:47AM -30.8107 152.8166 14° North 253 291 10,900 -1,320 Descending Aus ATC (RADAR)
04:48AM -30.7489 152.8331 13° North 267 307 9,800 -1,500 Descending Aus ATC (RADAR)
04:49AM -30.6815 152.8536 15° North 252 290 8,200 -1,560 Descending Aus ATC (RADAR)
04:50AM -30.6364 152.8652 12° North 224 258 7,100 -1,260 Descending Aus ATC (RADAR)
04:50AM -30.6058 152.8717 10° North 205 236 6,500 -1,020 Descending Aus ATC (RADAR)
04:54AM -30.4581 152.9975 360° North 800 -1,260 Descending Aus ATC (Calculated)
04:55AM -30.4581 152.9975 35° Northeast 800  Level Aus ATC (Calculated)
04:56AM -30.4024 153.0432 35° Northeast  Level FlightAware Approximate
04:57AM -30.3771 153.0640 35° Northeast  Level FlightAware Approximate
04:57AM -30.3500 153.1000 26° Northeast 200  Level Aus ATC (Calculated)
04:59AM -30.3206 153.1164 21° North  Level Estimated
05:00AM -30.3138 153.1170 185° South  Level FlightAware Approximate
05:01AM -30.3206 153.1163 185° South  Level FlightAware Approximate
05:02AM -30.3206 153.1164 185° South  Level Estimated
05:03AM -30.3206 153.1164 185° South  Level Estimated
05:04AM -30.3206 153.1164 185° South  Level Estimated
05:05AM -30.3206 153.1164 185° South  Level Estimated
05:06AM -30.3206 153.1164 185° South  Level Estimated
05:07AM -30.3206 153.1164 185° South  Level Estimated
05:08AM -30.3206 153.1164 185° South  Level Estimated
05:09AM -30.3206 153.1164 185° South  Level Estimated
05:10AM -30.3206 153.1164 185° South  Level Estimated
05:11AM -30.3206 153.1164 185° South  Level Estimated
05:12AM -30.3206 153.1164 185° South  Level Estimated
05:13AM -30.3206 153.1164 185° South  Level Estimated